sensor_id;sensor_type;location;lat;lon;timestamp;P1;durP1;ratioP1;P2;durP2;ratioP2
55330;SDS011;58851;42.984;20.336;2023-06-19T00:00:16;10.25;;;7.30;;
55330;SDS011;58851;42.984;20.336;2023-06-19T00:02:42;13.13;;;7.10;;
55330;SDS011;58851;42.984;20.336;2023-06-19T00:05:09;11.57;;;7.22;;
55330;SDS011;58851;42.984;20.336;2023-06-19T00:07:38;12.35;;;7.53;;
55330;SDS011;58851;42.984;20.336;2023-06-19T00:10:04;10.98;;;7.47;;
55330;SDS011;58851;42.984;20.336;2023-06-19T00:12:31;12.68;;;7.85;;
55330;SDS011;58851;42.984;20.336;2023-06-19T00:14:57;12.52;;;8.10;;
55330;SDS011;58851;42.984;20.336;2023-06-19T00:17:23;13.10;;;8.82;;
55330;SDS011;58851;42.984;20.336;2023-06-19T00:19:51;11.70;;;8.63;;
55330;SDS011;58851;42.984;20.336;2023-06-19T00:22:17;13.85;;;10.25;;
55330;SDS011;58851;42.984;20.336;2023-06-19T00:24:43;23.92;;;14.70;;
55330;SDS011;58851;42.984;20.336;2023-06-19T00:27:09;46.40;;;25.58;;
55330;SDS011;58851;42.984;20.336;2023-06-19T00:29:34;44.38;;;25.48;;
55330;SDS011;58851;42.984;20.336;2023-06-19T00:32:00;31.38;;;20.83;;
55330;SDS011;58851;42.984;20.336;2023-06-19T00:34:28;34.85;;;19.85;;
55330;SDS011;58851;42.984;20.336;2023-06-19T00:36:54;28.40;;;17.27;;
55330;SDS011;58851;42.984;20.336;2023-06-19T00:39:21;24.98;;;16.17;;
55330;SDS011;58851;42.984;20.336;2023-06-19T00:41:48;24.15;;;15.52;;
55330;SDS011;58851;42.984;20.336;2023-06-19T00:44:16;39.10;;;22.90;;
55330;SDS011;58851;42.984;20.336;2023-06-19T00:46:42;40.13;;;24.15;;
55330;SDS011;58851;42.984;20.336;2023-06-19T00:49:08;85.10;;;42.17;;
55330;SDS011;58851;42.984;20.336;2023-06-19T00:51:34;115.03;;;59.88;;
55330;SDS011;58851;42.984;20.336;2023-06-19T00:54:00;80.43;;;44.28;;
55330;SDS011;58851;42.984;20.336;2023-06-19T00:56:26;12.15;;;7.75;;
55330;SDS011;58851;42.984;20.336;2023-06-19T00:58:52;9.27;;;7.07;;
55330;SDS011;58851;42.984;20.336;2023-06-19T01:01:19;8.70;;;6.57;;
55330;SDS011;58851;42.984;20.336;2023-06-19T01:03:46;8.68;;;6.45;;
55330;SDS011;58851;42.984;20.336;2023-06-19T01:06:17;8.88;;;6.50;;
55330;SDS011;58851;42.984;20.336;2023-06-19T01:09:10;16.95;;;10.80;;
55330;SDS011;58851;42.984;20.336;2023-06-19T01:11:43;9.43;;;7.68;;
55330;SDS011;58851;42.984;20.336;2023-06-19T01:14:18;9.85;;;7.28;;
55330;SDS011;58851;42.984;20.336;2023-06-19T01:16:47;11.98;;;7.65;;
55330;SDS011;58851;42.984;20.336;2023-06-19T01:19:20;13.20;;;7.28;;
55330;SDS011;58851;42.984;20.336;2023-06-19T01:21:47;8.95;;;6.43;;
55330;SDS011;58851;42.984;20.336;2023-06-19T01:24:15;11.43;;;7.13;;
55330;SDS011;58851;42.984;20.336;2023-06-19T01:26:40;10.73;;;7.25;;
55330;SDS011;58851;42.984;20.336;2023-06-19T01:29:10;9.93;;;7.35;;
55330;SDS011;58851;42.984;20.336;2023-06-19T01:31:41;11.75;;;8.40;;
55330;SDS011;58851;42.984;20.336;2023-06-19T01:34:25;11.43;;;7.45;;
55330;SDS011;58851;42.984;20.336;2023-06-19T01:36:52;16.05;;;8.00;;
55330;SDS011;58851;42.984;20.336;2023-06-19T01:39:22;11.75;;;7.40;;
55330;SDS011;58851;42.984;20.336;2023-06-19T01:41:49;10.48;;;8.25;;
55330;SDS011;58851;42.984;20.336;2023-06-19T01:44:16;13.68;;;8.60;;
55330;SDS011;58851;42.984;20.336;2023-06-19T01:46:42;10.13;;;7.13;;
55330;SDS011;58851;42.984;20.336;2023-06-19T01:49:08;10.82;;;7.20;;
55330;SDS011;58851;42.984;20.336;2023-06-19T01:51:34;14.25;;;8.15;;
55330;SDS011;58851;42.984;20.336;2023-06-19T01:54:01;12.63;;;7.97;;
55330;SDS011;58851;42.984;20.336;2023-06-19T01:56:27;12.60;;;9.95;;
55330;SDS011;58851;42.984;20.336;2023-06-19T01:58:53;16.88;;;9.32;;
55330;SDS011;58851;42.984;20.336;2023-06-19T02:01:21;13.18;;;9.07;;
55330;SDS011;58851;42.984;20.336;2023-06-19T02:03:49;13.65;;;9.55;;
55330;SDS011;58851;42.984;20.336;2023-06-19T02:06:15;16.80;;;9.88;;
55330;SDS011;58851;42.984;20.336;2023-06-19T02:08:41;16.17;;;8.93;;
55330;SDS011;58851;42.984;20.336;2023-06-19T02:11:08;12.15;;;9.43;;
55330;SDS011;58851;42.984;20.336;2023-06-19T02:13:34;10.25;;;8.38;;
55330;SDS011;58851;42.984;20.336;2023-06-19T02:16:00;11.35;;;8.50;;
55330;SDS011;58851;42.984;20.336;2023-06-19T02:18:25;17.75;;;8.55;;
55330;SDS011;58851;42.984;20.336;2023-06-19T02:20:51;10.25;;;7.95;;
55330;SDS011;58851;42.984;20.336;2023-06-19T02:23:17;10.25;;;6.93;;
55330;SDS011;58851;42.984;20.336;2023-06-19T02:25:43;9.73;;;6.70;;
55330;SDS011;58851;42.984;20.336;2023-06-19T02:28:08;9.63;;;7.13;;
55330;SDS011;58851;42.984;20.336;2023-06-19T02:30:34;11.15;;;7.68;;
55330;SDS011;58851;42.984;20.336;2023-06-19T02:33:00;9.32;;;7.15;;
55330;SDS011;58851;42.984;20.336;2023-06-19T02:35:26;12.57;;;8.25;;
55330;SDS011;58851;42.984;20.336;2023-06-19T02:37:51;10.98;;;7.50;;
55330;SDS011;58851;42.984;20.336;2023-06-19T02:40:17;14.02;;;8.43;;
55330;SDS011;58851;42.984;20.336;2023-06-19T02:42:43;11.85;;;8.52;;
55330;SDS011;58851;42.984;20.336;2023-06-19T02:45:09;9.05;;;6.93;;
55330;SDS011;58851;42.984;20.336;2023-06-19T02:47:35;11.15;;;8.68;;
55330;SDS011;58851;42.984;20.336;2023-06-19T02:50:02;12.30;;;8.85;;
55330;SDS011;58851;42.984;20.336;2023-06-19T02:52:29;12.27;;;8.23;;
55330;SDS011;58851;42.984;20.336;2023-06-19T02:54:55;13.65;;;8.60;;
55330;SDS011;58851;42.984;20.336;2023-06-19T02:57:21;18.02;;;9.55;;
55330;SDS011;58851;42.984;20.336;2023-06-19T02:59:47;25.20;;;11.75;;
55330;SDS011;58851;42.984;20.336;2023-06-19T03:02:13;20.92;;;10.55;;
55330;SDS011;58851;42.984;20.336;2023-06-19T03:04:39;22.35;;;10.35;;
55330;SDS011;58851;42.984;20.336;2023-06-19T03:07:09;17.30;;;9.90;;
55330;SDS011;58851;42.984;20.336;2023-06-19T03:09:35;11.98;;;8.63;;
55330;SDS011;58851;42.984;20.336;2023-06-19T03:12:01;12.85;;;7.97;;
55330;SDS011;58851;42.984;20.336;2023-06-19T03:14:27;9.75;;;7.57;;
55330;SDS011;58851;42.984;20.336;2023-06-19T03:16:53;12.48;;;7.22;;
55330;SDS011;58851;42.984;20.336;2023-06-19T03:19:18;12.70;;;8.00;;
55330;SDS011;58851;42.984;20.336;2023-06-19T03:21:44;10.88;;;7.55;;
55330;SDS011;58851;42.984;20.336;2023-06-19T03:24:10;9.75;;;7.10;;
55330;SDS011;58851;42.984;20.336;2023-06-19T03:26:36;12.18;;;8.63;;
55330;SDS011;58851;42.984;20.336;2023-06-19T03:29:02;11.80;;;8.35;;
55330;SDS011;58851;42.984;20.336;2023-06-19T03:31:27;12.93;;;7.55;;
55330;SDS011;58851;42.984;20.336;2023-06-19T03:33:53;12.85;;;8.27;;
55330;SDS011;58851;42.984;20.336;2023-06-19T03:36:19;10.73;;;7.70;;
55330;SDS011;58851;42.984;20.336;2023-06-19T03:38:45;15.57;;;8.95;;
55330;SDS011;58851;42.984;20.336;2023-06-19T03:41:10;13.43;;;8.77;;
55330;SDS011;58851;42.984;20.336;2023-06-19T03:43:37;10.68;;;7.28;;
55330;SDS011;58851;42.984;20.336;2023-06-19T03:46:03;11.00;;;8.25;;
55330;SDS011;58851;42.984;20.336;2023-06-19T03:48:28;10.40;;;7.95;;
55330;SDS011;58851;42.984;20.336;2023-06-19T03:50:54;10.65;;;7.85;;
55330;SDS011;58851;42.984;20.336;2023-06-19T03:53:20;13.40;;;8.20;;
55330;SDS011;58851;42.984;20.336;2023-06-19T03:55:46;12.82;;;8.48;;
55330;SDS011;58851;42.984;20.336;2023-06-19T03:58:12;9.35;;;7.07;;
55330;SDS011;58851;42.984;20.336;2023-06-19T04:00:37;10.85;;;8.10;;
55330;SDS011;58851;42.984;20.336;2023-06-19T04:03:03;12.07;;;8.13;;
55330;SDS011;58851;42.984;20.336;2023-06-19T04:05:29;12.13;;;8.93;;
55330;SDS011;58851;42.984;20.336;2023-06-19T04:07:55;19.73;;;9.35;;
55330;SDS011;58851;42.984;20.336;2023-06-19T04:10:20;17.33;;;9.75;;
55330;SDS011;58851;42.984;20.336;2023-06-19T04:12:46;11.85;;;8.48;;
55330;SDS011;58851;42.984;20.336;2023-06-19T04:15:12;26.67;;;10.40;;
55330;SDS011;58851;42.984;20.336;2023-06-19T04:17:38;14.10;;;8.77;;
55330;SDS011;58851;42.984;20.336;2023-06-19T04:20:04;15.75;;;9.32;;
55330;SDS011;58851;42.984;20.336;2023-06-19T04:22:37;16.00;;;9.10;;
55330;SDS011;58851;42.984;20.336;2023-06-19T04:25:04;13.13;;;9.48;;
55330;SDS011;58851;42.984;20.336;2023-06-19T04:27:31;13.05;;;8.68;;
55330;SDS011;58851;42.984;20.336;2023-06-19T04:29:57;12.23;;;8.63;;
55330;SDS011;58851;42.984;20.336;2023-06-19T04:32:23;13.93;;;8.48;;
55330;SDS011;58851;42.984;20.336;2023-06-19T04:34:49;14.02;;;9.25;;
55330;SDS011;58851;42.984;20.336;2023-06-19T04:37:14;11.68;;;9.23;;
55330;SDS011;58851;42.984;20.336;2023-06-19T04:39:44;11.63;;;8.32;;
55330;SDS011;58851;42.984;20.336;2023-06-19T04:42:12;12.02;;;9.20;;
55330;SDS011;58851;42.984;20.336;2023-06-19T04:44:47;13.40;;;9.25;;
55330;SDS011;58851;42.984;20.336;2023-06-19T04:47:13;12.30;;;8.60;;
55330;SDS011;58851;42.984;20.336;2023-06-19T04:49:39;11.85;;;9.38;;
55330;SDS011;58851;42.984;20.336;2023-06-19T04:52:05;14.73;;;9.60;;
55330;SDS011;58851;42.984;20.336;2023-06-19T04:54:31;13.95;;;8.73;;
55330;SDS011;58851;42.984;20.336;2023-06-19T04:56:58;12.77;;;7.93;;
55330;SDS011;58851;42.984;20.336;2023-06-19T04:59:24;11.70;;;9.07;;
55330;SDS011;58851;42.984;20.336;2023-06-19T05:01:49;17.02;;;10.45;;
55330;SDS011;58851;42.984;20.336;2023-06-19T05:04:19;13.60;;;9.20;;
55330;SDS011;58851;42.984;20.336;2023-06-19T05:06:45;15.45;;;9.63;;
55330;SDS011;58851;42.984;20.336;2023-06-19T05:09:11;14.48;;;9.70;;
55330;SDS011;58851;42.984;20.336;2023-06-19T05:11:37;17.60;;;10.98;;
55330;SDS011;58851;42.984;20.336;2023-06-19T05:14:03;21.00;;;11.98;;
55330;SDS011;58851;42.984;20.336;2023-06-19T05:16:28;14.00;;;9.88;;
55330;SDS011;58851;42.984;20.336;2023-06-19T05:18:54;19.52;;;10.02;;
55330;SDS011;58851;42.984;20.336;2023-06-19T05:21:20;14.65;;;9.82;;
55330;SDS011;58851;42.984;20.336;2023-06-19T05:23:46;14.77;;;10.70;;
55330;SDS011;58851;42.984;20.336;2023-06-19T05:26:15;15.27;;;10.80;;
55330;SDS011;58851;42.984;20.336;2023-06-19T05:28:42;16.92;;;9.95;;
55330;SDS011;58851;42.984;20.336;2023-06-19T05:31:07;20.33;;;11.02;;
55330;SDS011;58851;42.984;20.336;2023-06-19T05:33:34;15.27;;;12.10;;
55330;SDS011;58851;42.984;20.336;2023-06-19T05:35:59;16.90;;;10.35;;
55330;SDS011;58851;42.984;20.336;2023-06-19T05:38:26;12.60;;;9.77;;
55330;SDS011;58851;42.984;20.336;2023-06-19T05:40:55;15.25;;;10.60;;
55330;SDS011;58851;42.984;20.336;2023-06-19T05:43:22;16.60;;;10.80;;
55330;SDS011;58851;42.984;20.336;2023-06-19T05:45:49;13.48;;;9.25;;
55330;SDS011;58851;42.984;20.336;2023-06-19T05:48:15;13.90;;;9.40;;
55330;SDS011;58851;42.984;20.336;2023-06-19T05:50:41;15.07;;;10.25;;
55330;SDS011;58851;42.984;20.336;2023-06-19T05:53:07;14.55;;;9.27;;
55330;SDS011;58851;42.984;20.336;2023-06-19T05:55:33;13.85;;;9.23;;
55330;SDS011;58851;42.984;20.336;2023-06-19T05:57:58;14.90;;;10.63;;
55330;SDS011;58851;42.984;20.336;2023-06-19T06:00:24;13.10;;;9.07;;
55330;SDS011;58851;42.984;20.336;2023-06-19T06:02:50;12.50;;;9.52;;
55330;SDS011;58851;42.984;20.336;2023-06-19T06:05:17;13.85;;;8.75;;
55330;SDS011;58851;42.984;20.336;2023-06-19T06:07:44;16.38;;;9.30;;
55330;SDS011;58851;42.984;20.336;2023-06-19T06:10:10;12.70;;;8.15;;
55330;SDS011;58851;42.984;20.336;2023-06-19T06:12:36;12.60;;;9.50;;
55330;SDS011;58851;42.984;20.336;2023-06-19T06:15:03;15.25;;;8.63;;
55330;SDS011;58851;42.984;20.336;2023-06-19T06:17:30;13.40;;;9.48;;
55330;SDS011;58851;42.984;20.336;2023-06-19T06:19:56;13.55;;;9.35;;
55330;SDS011;58851;42.984;20.336;2023-06-19T06:22:22;13.25;;;9.57;;
55330;SDS011;58851;42.984;20.336;2023-06-19T06:24:48;14.45;;;10.48;;
55330;SDS011;58851;42.984;20.336;2023-06-19T06:27:15;10.60;;;8.85;;
55330;SDS011;58851;42.984;20.336;2023-06-19T06:29:41;17.98;;;10.50;;
55330;SDS011;58851;42.984;20.336;2023-06-19T06:32:07;10.77;;;9.15;;
55330;SDS011;58851;42.984;20.336;2023-06-19T06:34:34;11.77;;;9.52;;
55330;SDS011;58851;42.984;20.336;2023-06-19T06:37:00;13.45;;;10.13;;
55330;SDS011;58851;42.984;20.336;2023-06-19T06:39:26;12.07;;;8.60;;
55330;SDS011;58851;42.984;20.336;2023-06-19T06:41:52;13.30;;;10.02;;
55330;SDS011;58851;42.984;20.336;2023-06-19T06:44:18;13.60;;;10.35;;
55330;SDS011;58851;42.984;20.336;2023-06-19T06:46:44;13.48;;;9.68;;
55330;SDS011;58851;42.984;20.336;2023-06-19T06:49:11;14.23;;;10.10;;
55330;SDS011;58851;42.984;20.336;2023-06-19T06:51:37;13.07;;;9.23;;
55330;SDS011;58851;42.984;20.336;2023-06-19T06:54:03;14.32;;;9.60;;
55330;SDS011;58851;42.984;20.336;2023-06-19T06:56:29;14.63;;;10.48;;
55330;SDS011;58851;42.984;20.336;2023-06-19T06:58:55;14.23;;;10.25;;
55330;SDS011;58851;42.984;20.336;2023-06-19T07:01:21;14.07;;;9.88;;
55330;SDS011;58851;42.984;20.336;2023-06-19T07:03:46;18.63;;;10.60;;
55330;SDS011;58851;42.984;20.336;2023-06-19T07:06:12;13.77;;;9.23;;
55330;SDS011;58851;42.984;20.336;2023-06-19T07:08:38;14.23;;;10.65;;
55330;SDS011;58851;42.984;20.336;2023-06-19T07:11:06;14.27;;;9.10;;
55330;SDS011;58851;42.984;20.336;2023-06-19T07:13:32;15.35;;;9.88;;
55330;SDS011;58851;42.984;20.336;2023-06-19T07:15:58;15.45;;;11.05;;
55330;SDS011;58851;42.984;20.336;2023-06-19T07:18:26;22.15;;;12.10;;
55330;SDS011;58851;42.984;20.336;2023-06-19T07:20:52;16.98;;;9.95;;
55330;SDS011;58851;42.984;20.336;2023-06-19T07:23:18;17.45;;;11.27;;
55330;SDS011;58851;42.984;20.336;2023-06-19T07:25:45;13.90;;;10.25;;
55330;SDS011;58851;42.984;20.336;2023-06-19T07:28:12;17.92;;;10.30;;
55330;SDS011;58851;42.984;20.336;2023-06-19T07:30:38;17.45;;;9.20;;
55330;SDS011;58851;42.984;20.336;2023-06-19T07:33:04;13.18;;;8.85;;
55330;SDS011;58851;42.984;20.336;2023-06-19T07:35:30;14.15;;;9.73;;
55330;SDS011;58851;42.984;20.336;2023-06-19T07:37:56;15.02;;;11.10;;
55330;SDS011;58851;42.984;20.336;2023-06-19T07:40:22;15.10;;;12.18;;
55330;SDS011;58851;42.984;20.336;2023-06-19T07:42:47;17.13;;;11.98;;
55330;SDS011;58851;42.984;20.336;2023-06-19T07:45:13;13.75;;;10.35;;
55330;SDS011;58851;42.984;20.336;2023-06-19T07:47:39;15.05;;;10.23;;
55330;SDS011;58851;42.984;20.336;2023-06-19T07:50:05;20.92;;;10.68;;
55330;SDS011;58851;42.984;20.336;2023-06-19T07:52:31;18.02;;;11.02;;
55330;SDS011;58851;42.984;20.336;2023-06-19T07:54:57;17.13;;;10.52;;
55330;SDS011;58851;42.984;20.336;2023-06-19T07:57:24;13.13;;;10.13;;
55330;SDS011;58851;42.984;20.336;2023-06-19T07:59:51;14.70;;;10.55;;
55330;SDS011;58851;42.984;20.336;2023-06-19T08:02:18;12.50;;;9.48;;
55330;SDS011;58851;42.984;20.336;2023-06-19T08:04:44;14.68;;;10.38;;
55330;SDS011;58851;42.984;20.336;2023-06-19T08:07:10;16.67;;;10.02;;
55330;SDS011;58851;42.984;20.336;2023-06-19T08:09:36;10.27;;;7.55;;
55330;SDS011;58851;42.984;20.336;2023-06-19T08:12:02;13.20;;;9.07;;
55330;SDS011;58851;42.984;20.336;2023-06-19T08:14:28;13.93;;;7.72;;
55330;SDS011;58851;42.984;20.336;2023-06-19T08:16:54;11.30;;;8.52;;
55330;SDS011;58851;42.984;20.336;2023-06-19T08:19:20;13.27;;;7.80;;
55330;SDS011;58851;42.984;20.336;2023-06-19T08:21:46;11.57;;;7.25;;
55330;SDS011;58851;42.984;20.336;2023-06-19T08:24:12;11.00;;;8.10;;
55330;SDS011;58851;42.984;20.336;2023-06-19T08:26:37;13.98;;;6.97;;
55330;SDS011;58851;42.984;20.336;2023-06-19T08:29:03;8.63;;;7.03;;
55330;SDS011;58851;42.984;20.336;2023-06-19T08:31:29;8.85;;;6.43;;
55330;SDS011;58851;42.984;20.336;2023-06-19T08:33:55;13.77;;;6.25;;
55330;SDS011;58851;42.984;20.336;2023-06-19T08:36:21;8.60;;;5.72;;
55330;SDS011;58851;42.984;20.336;2023-06-19T08:38:47;11.93;;;6.07;;
55330;SDS011;58851;42.984;20.336;2023-06-19T08:41:17;12.63;;;6.28;;
55330;SDS011;58851;42.984;20.336;2023-06-19T08:43:44;8.25;;;6.65;;
55330;SDS011;58851;42.984;20.336;2023-06-19T08:46:12;7.68;;;5.57;;
55330;SDS011;58851;42.984;20.336;2023-06-19T08:48:42;7.95;;;5.57;;
55330;SDS011;58851;42.984;20.336;2023-06-19T08:51:09;6.95;;;5.20;;
55330;SDS011;58851;42.984;20.336;2023-06-19T08:53:36;8.07;;;5.50;;
55330;SDS011;58851;42.984;20.336;2023-06-19T08:56:11;9.93;;;5.50;;
55330;SDS011;58851;42.984;20.336;2023-06-19T08:58:37;8.85;;;5.07;;
55330;SDS011;58851;42.984;20.336;2023-06-19T09:01:03;7.60;;;5.35;;
55330;SDS011;58851;42.984;20.336;2023-06-19T09:03:29;10.52;;;6.65;;
55330;SDS011;58851;42.984;20.336;2023-06-19T09:05:55;9.88;;;6.32;;
55330;SDS011;58851;42.984;20.336;2023-06-19T09:08:21;9.23;;;5.45;;
55330;SDS011;58851;42.984;20.336;2023-06-19T09:13:23;7.53;;;5.75;;
55330;SDS011;58851;42.984;20.336;2023-06-19T09:15:56;9.98;;;6.10;;
55330;SDS011;58851;42.984;20.336;2023-06-19T09:18:24;7.80;;;4.97;;
55330;SDS011;58851;42.984;20.336;2023-06-19T09:20:51;10.05;;;5.13;;
55330;SDS011;58851;42.984;20.336;2023-06-19T09:23:18;8.13;;;4.90;;
55330;SDS011;58851;42.984;20.336;2023-06-19T09:25:45;9.73;;;5.88;;
55330;SDS011;58851;42.984;20.336;2023-06-19T09:31:00;9.80;;;5.88;;
55330;SDS011;58851;42.984;20.336;2023-06-19T09:33:30;9.55;;;5.13;;
55330;SDS011;58851;42.984;20.336;2023-06-19T09:35:58;9.60;;;5.85;;
55330;SDS011;58851;42.984;20.336;2023-06-19T09:38:27;11.48;;;6.50;;
55330;SDS011;58851;42.984;20.336;2023-06-19T09:41:02;7.78;;;5.57;;
55330;SDS011;58851;42.984;20.336;2023-06-19T09:43:41;7.70;;;5.63;;
55330;SDS011;58851;42.984;20.336;2023-06-19T09:46:09;8.23;;;5.28;;
55330;SDS011;58851;42.984;20.336;2023-06-19T09:48:36;7.97;;;4.75;;
55330;SDS011;58851;42.984;20.336;2023-06-19T09:51:29;8.75;;;5.00;;
55330;SDS011;58851;42.984;20.336;2023-06-19T09:53:56;6.72;;;4.60;;
55330;SDS011;58851;42.984;20.336;2023-06-19T09:56:24;9.70;;;4.60;;
55330;SDS011;58851;42.984;20.336;2023-06-19T09:58:52;6.25;;;3.70;;
55330;SDS011;58851;42.984;20.336;2023-06-19T10:01:21;6.03;;;4.05;;
55330;SDS011;58851;42.984;20.336;2023-06-19T10:03:48;9.18;;;4.82;;
55330;SDS011;58851;42.984;20.336;2023-06-19T10:06:15;9.45;;;4.78;;
55330;SDS011;58851;42.984;20.336;2023-06-19T10:08:42;10.05;;;4.30;;
55330;SDS011;58851;42.984;20.336;2023-06-19T10:11:09;8.55;;;4.30;;
55330;SDS011;58851;42.984;20.336;2023-06-19T10:13:36;6.80;;;4.45;;
55330;SDS011;58851;42.984;20.336;2023-06-19T10:16:05;9.35;;;5.47;;
55330;SDS011;58851;42.984;20.336;2023-06-19T10:18:31;10.23;;;5.45;;
55330;SDS011;58851;42.984;20.336;2023-06-19T10:20:58;6.55;;;4.50;;
55330;SDS011;58851;42.984;20.336;2023-06-19T10:23:24;5.95;;;4.05;;
55330;SDS011;58851;42.984;20.336;2023-06-19T10:25:56;7.55;;;4.60;;
55330;SDS011;58851;42.984;20.336;2023-06-19T10:28:33;8.35;;;4.38;;
55330;SDS011;58851;42.984;20.336;2023-06-19T10:31:00;10.88;;;4.57;;
55330;SDS011;58851;42.984;20.336;2023-06-19T10:33:27;8.15;;;4.18;;
55330;SDS011;58851;42.984;20.336;2023-06-19T10:35:55;8.63;;;4.30;;
55330;SDS011;58851;42.984;20.336;2023-06-19T10:38:21;9.32;;;4.72;;
55330;SDS011;58851;42.984;20.336;2023-06-19T10:40:47;8.95;;;4.47;;
55330;SDS011;58851;42.984;20.336;2023-06-19T10:43:19;6.35;;;4.07;;
55330;SDS011;58851;42.984;20.336;2023-06-19T10:45:57;7.88;;;4.20;;
55330;SDS011;58851;42.984;20.336;2023-06-19T10:48:24;6.25;;;4.30;;
55330;SDS011;58851;42.984;20.336;2023-06-19T10:50:50;6.47;;;4.75;;
55330;SDS011;58851;42.984;20.336;2023-06-19T10:53:26;7.15;;;4.50;;
55330;SDS011;58851;42.984;20.336;2023-06-19T10:55:56;5.78;;;4.07;;
55330;SDS011;58851;42.984;20.336;2023-06-19T10:58:24;7.10;;;4.40;;
55330;SDS011;58851;42.984;20.336;2023-06-19T11:00:50;5.93;;;4.32;;
55330;SDS011;58851;42.984;20.336;2023-06-19T11:03:16;5.82;;;4.35;;
55330;SDS011;58851;42.984;20.336;2023-06-19T11:05:45;5.47;;;4.00;;
55330;SDS011;58851;42.984;20.336;2023-06-19T11:08:16;8.45;;;4.85;;
55330;SDS011;58851;42.984;20.336;2023-06-19T11:10:43;7.90;;;4.20;;
55330;SDS011;58851;42.984;20.336;2023-06-19T11:13:12;6.65;;;4.30;;
55330;SDS011;58851;42.984;20.336;2023-06-19T11:15:39;6.78;;;4.43;;
55330;SDS011;58851;42.984;20.336;2023-06-19T11:18:05;6.43;;;4.68;;
55330;SDS011;58851;42.984;20.336;2023-06-19T11:20:31;8.43;;;4.95;;
55330;SDS011;58851;42.984;20.336;2023-06-19T11:23:08;6.15;;;4.78;;
55330;SDS011;58851;42.984;20.336;2023-06-19T11:25:37;5.93;;;4.43;;
55330;SDS011;58851;42.984;20.336;2023-06-19T11:28:10;7.72;;;4.63;;
55330;SDS011;58851;42.984;20.336;2023-06-19T11:30:39;5.78;;;4.10;;
55330;SDS011;58851;42.984;20.336;2023-06-19T11:33:41;11.55;;;4.38;;
55330;SDS011;58851;42.984;20.336;2023-06-19T11:36:01;7.30;;;3.95;;
55330;SDS011;58851;42.984;20.336;2023-06-19T11:38:28;6.18;;;4.10;;
55330;SDS011;58851;42.984;20.336;2023-06-19T11:40:54;9.13;;;4.50;;
55330;SDS011;58851;42.984;20.336;2023-06-19T11:43:24;6.03;;;4.05;;
55330;SDS011;58851;42.984;20.336;2023-06-19T11:45:51;7.88;;;5.15;;
55330;SDS011;58851;42.984;20.336;2023-06-19T11:48:23;12.27;;;4.18;;
55330;SDS011;58851;42.984;20.336;2023-06-19T11:50:50;8.75;;;4.63;;
55330;SDS011;58851;42.984;20.336;2023-06-19T11:53:17;6.93;;;4.32;;
55330;SDS011;58851;42.984;20.336;2023-06-19T11:55:43;10.25;;;5.75;;
55330;SDS011;58851;42.984;20.336;2023-06-19T11:58:09;11.73;;;4.85;;
55330;SDS011;58851;42.984;20.336;2023-06-19T12:00:36;7.90;;;4.43;;
55330;SDS011;58851;42.984;20.336;2023-06-19T12:03:02;8.18;;;4.70;;
55330;SDS011;58851;42.984;20.336;2023-06-19T12:05:29;8.85;;;5.07;;
55330;SDS011;58851;42.984;20.336;2023-06-19T12:07:55;9.82;;;5.07;;
55330;SDS011;58851;42.984;20.336;2023-06-19T12:10:21;9.02;;;4.82;;
55330;SDS011;58851;42.984;20.336;2023-06-19T12:12:47;7.18;;;4.32;;
55330;SDS011;58851;42.984;20.336;2023-06-19T12:15:13;6.57;;;4.00;;
55330;SDS011;58851;42.984;20.336;2023-06-19T12:17:39;10.73;;;4.55;;
55330;SDS011;58851;42.984;20.336;2023-06-19T12:20:05;6.03;;;3.70;;
55330;SDS011;58851;42.984;20.336;2023-06-19T12:22:32;9.27;;;4.30;;
55330;SDS011;58851;42.984;20.336;2023-06-19T12:24:59;13.88;;;5.00;;
55330;SDS011;58851;42.984;20.336;2023-06-19T12:27:25;6.38;;;4.25;;
55330;SDS011;58851;42.984;20.336;2023-06-19T12:29:51;8.77;;;4.50;;
55330;SDS011;58851;42.984;20.336;2023-06-19T12:32:17;12.10;;;4.30;;
55330;SDS011;58851;42.984;20.336;2023-06-19T12:34:43;7.60;;;4.18;;
55330;SDS011;58851;42.984;20.336;2023-06-19T12:37:14;8.88;;;4.88;;
55330;SDS011;58851;42.984;20.336;2023-06-19T12:39:42;13.48;;;5.70;;
55330;SDS011;58851;42.984;20.336;2023-06-19T12:42:09;7.10;;;4.95;;
55330;SDS011;58851;42.984;20.336;2023-06-19T12:44:37;5.47;;;4.00;;
55330;SDS011;58851;42.984;20.336;2023-06-19T12:47:04;8.32;;;4.40;;
55330;SDS011;58851;42.984;20.336;2023-06-19T12:49:30;8.52;;;5.20;;
55330;SDS011;58851;42.984;20.336;2023-06-19T12:51:56;9.38;;;5.05;;
55330;SDS011;58851;42.984;20.336;2023-06-19T12:54:23;8.40;;;4.57;;
55330;SDS011;58851;42.984;20.336;2023-06-19T12:56:49;8.20;;;4.85;;
55330;SDS011;58851;42.984;20.336;2023-06-19T12:59:15;6.03;;;4.60;;
55330;SDS011;58851;42.984;20.336;2023-06-19T13:01:41;11.35;;;4.38;;
55330;SDS011;58851;42.984;20.336;2023-06-19T13:04:07;13.02;;;4.25;;
55330;SDS011;58851;42.984;20.336;2023-06-19T13:06:33;8.35;;;4.43;;
55330;SDS011;58851;42.984;20.336;2023-06-19T13:09:01;9.95;;;5.82;;
55330;SDS011;58851;42.984;20.336;2023-06-19T13:11:29;6.22;;;3.67;;
55330;SDS011;58851;42.984;20.336;2023-06-19T13:13:55;6.90;;;4.03;;
55330;SDS011;58851;42.984;20.336;2023-06-19T13:16:21;10.52;;;3.95;;
55330;SDS011;58851;42.984;20.336;2023-06-19T13:18:50;9.88;;;4.65;;
55330;SDS011;58851;42.984;20.336;2023-06-19T13:21:17;7.30;;;4.15;;
55330;SDS011;58851;42.984;20.336;2023-06-19T13:23:43;9.23;;;5.70;;
55330;SDS011;58851;42.984;20.336;2023-06-19T13:26:08;7.95;;;5.10;;
55330;SDS011;58851;42.984;20.336;2023-06-19T13:28:35;7.40;;;4.80;;
55330;SDS011;58851;42.984;20.336;2023-06-19T13:31:01;6.35;;;4.45;;
55330;SDS011;58851;42.984;20.336;2023-06-19T13:33:27;8.15;;;4.22;;
55330;SDS011;58851;42.984;20.336;2023-06-19T13:35:53;7.65;;;4.18;;
55330;SDS011;58851;42.984;20.336;2023-06-19T13:38:19;5.80;;;4.35;;
55330;SDS011;58851;42.984;20.336;2023-06-19T13:40:46;6.97;;;4.35;;
55330;SDS011;58851;42.984;20.336;2023-06-19T13:43:12;6.00;;;4.00;;
55330;SDS011;58851;42.984;20.336;2023-06-19T13:45:38;6.70;;;4.35;;
55330;SDS011;58851;42.984;20.336;2023-06-19T13:48:04;10.50;;;4.80;;
55330;SDS011;58851;42.984;20.336;2023-06-19T13:50:31;5.57;;;4.32;;
55330;SDS011;58851;42.984;20.336;2023-06-19T13:52:58;6.50;;;4.38;;
55330;SDS011;58851;42.984;20.336;2023-06-19T13:55:24;8.25;;;4.35;;
55330;SDS011;58851;42.984;20.336;2023-06-19T13:57:50;8.02;;;4.18;;
55330;SDS011;58851;42.984;20.336;2023-06-19T14:00:17;10.55;;;4.57;;
55330;SDS011;58851;42.984;20.336;2023-06-19T14:02:43;8.70;;;4.00;;
55330;SDS011;58851;42.984;20.336;2023-06-19T14:05:10;9.95;;;4.10;;
55330;SDS011;58851;42.984;20.336;2023-06-19T14:07:36;6.25;;;4.10;;
55330;SDS011;58851;42.984;20.336;2023-06-19T14:10:03;9.52;;;4.07;;
55330;SDS011;58851;42.984;20.336;2023-06-19T14:12:30;8.25;;;4.70;;
55330;SDS011;58851;42.984;20.336;2023-06-19T14:14:56;9.18;;;3.63;;
55330;SDS011;58851;42.984;20.336;2023-06-19T14:17:22;8.43;;;4.45;;
55330;SDS011;58851;42.984;20.336;2023-06-19T14:19:48;6.97;;;4.53;;
55330;SDS011;58851;42.984;20.336;2023-06-19T14:22:15;7.50;;;4.15;;
55330;SDS011;58851;42.984;20.336;2023-06-19T14:24:42;6.95;;;3.60;;
55330;SDS011;58851;42.984;20.336;2023-06-19T14:27:08;5.10;;;3.95;;